EKOD Airport Information

Runway Information
Runway 06 Length 6053 ft width 148 ft
Elevation 44 ft Threshold 0 ft Heading 60
Runway 24 Length 6053 ft Width 148 ft
Elevation 46 ft Threshold 0 ft Heading 240
Runway 13 Length 2280 ft width 98 ft
Elevation 0 ft Threshold 0 ft Heading 130
Runway 31 Length 2280 ft Width 98 ft
Elevation 0 ft Threshold 361 ft Heading 310
Airport Frequencies
Type AFIS Name AFIS Frequency 119.525 MHZ
Airport Navaids
Airport Weather Information & NOTAM
ADDS - METARS form results

(1402 UTC 25 May 2019)
Data provider http://aviationweather.gov/metar/data/
 
METAR text: EKOD 251350Z 29014KT 9999 FEW029 16/09 Q1013
Conditions at: EKOD (ODENSE/BELDRINGE, DK) observed 1350 UTC 25 May 2019
Temperature: 16.0°C (61°F)
Dewpoint: 9.0°C (48°F) [RH = 63%]
Pressure (altimeter): 29.91 inches Hg (1013.0 mb)
Winds: from the WNW (290 degrees) at 16 MPH (14 knots; 7.2 m/s)
Visibility: 6 or more miles (10+ km)
Ceiling: at least 12,000 feet AGL
Clouds: few clouds at 2900 feet AGL
Weather: no significant weather observed at this time

Forecast for: EKOD (ODENSE/BELDRINGE, DK)
Text: TAF EKOD 250859Z 2509/2515 27012KT 9999 SCT020
Forecast period: 0900 to 1500 UTC 25 May 2019
Forecast type: FROM: standard forecast or significant change
Winds: from the W (270 degrees) at 14 MPH (12 knots; 6.2 m/s)
Visibility: 6 or more miles 10+ km)
Ceiling: at least 12,000 feet AGL
Clouds: scattered clouds at 2000 feet AGL
Weather: no significant weather forecast for this period